Flight Track Log - Related Links

Times and Time Zones

All times are in EDT time to prevent confusion due to time zone crossing. See the N2727M flight status page for this flight to view local times or setup timezone preferences in your user account.

Time Position Orientation Groundspeed Altitude Reporting Facility
EDT Latitude Longitude Course Direction KTS MPH feet Rate Location/Type
Sat 09:03:44 PM 39.8500 -86.2833 360° North 91 105 1,200  Level Indianapolis TRACON
Sat 09:04:08 PM 39.8500 -86.2833 270° West 89 102 1,300 357 Climbing Indianapolis TRACON
Sat 09:05:08 PM 39.8833 -86.2833 360° North 87 100 1,700 400 Climbing Indianapolis TRACON
Sat 09:06:08 PM 39.9000 -86.3000 323° Northwest 95 109 2,100 350 Climbing Indianapolis TRACON
Sat 09:07:08 PM 39.9333 -86.3000 360° North 100 115 2,400 300 Climbing Indianapolis TRACON
Sat 09:08:08 PM 39.9667 -86.3000 360° North 100 115 2,700 240 Climbing Indianapolis TRACON
Sat 09:08:23 PM 39.9686 -86.2997 North 97 112 2,700 312 Level Chicago Center
Sat 09:09:25 PM 39.9922 -86.2797 33° Northeast 102 117 3,100 341 Climbing Chicago Center
Sat 09:10:26 PM 40.0119 -86.2564 42° Northeast 100 115 3,400 298 Climbing Chicago Center
Sat 09:11:26 PM 40.0342 -86.2356 36° Northeast 99 114 3,700 298 Climbing Indianapolis Center
Sat 09:12:27 PM 40.0547 -86.2122 41° Northeast 99 114 4,000 148 Climbing Indianapolis Center
Sat 09:13:28 PM 40.0769 -86.1853 43° Northeast 102 117 4,000  Level Indianapolis Center
Sat 09:14:29 PM 40.0997 -86.1539 47° Northeast 111 128 4,000 -48 Level Indianapolis Center
Sat 09:15:32 PM 40.1258 -86.1253 40° Northeast 116 133 3,900 -48 Descending Chicago Center
Sat 09:16:33 PM 40.1514 -86.1011 36° Northeast 116 133 3,900  Level Chicago Center
Sat 09:17:34 PM 40.1806 -86.0686 40° Northeast 115 132 3,900 119 Level Chicago Center
Sat 09:18:14 PM 40.1956 -86.0508 42° Northeast 116 133 4,100 98 Climbing Chicago Center
Sat 09:18:35 PM 40.2050 -86.0408 39° Northeast 115 132 4,000  Descending Chicago Center
Sat 09:19:15 PM 40.2172 -86.0247 45° Northeast 114 131 4,100  Climbing Chicago Center
Sat 09:19:36 PM 40.2281 -86.0142 37° Northeast 114 131 4,000  Descending Chicago Center
Sat 09:20:16 PM 40.2453 -85.9964 38° Northeast 116 133 4,100  Climbing Chicago Center
Sat 09:20:37 PM 40.2533 -85.9875 40° Northeast 114 131 4,000  Descending Chicago Center
Sat 09:21:16 PM 40.2669 -85.9675 48° Northeast 114 131 4,100  Climbing Chicago Center
Sat 09:21:38 PM 40.2764 -85.9578 38° Northeast 116 133 4,000  Descending Chicago Center
Sat 09:22:17 PM 40.2931 -85.9389 41° Northeast 115 132 4,100  Climbing Chicago Center
Sat 09:22:40 PM 40.3011 -85.9306 38° Northeast 115 132 4,000  Descending Chicago Center
Sat 09:23:17 PM 40.3189 -85.9131 37° Northeast 116 133 4,100  Climbing Chicago Center
Sat 09:23:41 PM 40.3264 -85.9033 45° Northeast 117 135 4,000  Descending Chicago Center
Sat 09:24:18 PM 40.3444 -85.8897 30° Northeast 114 131 4,100  Climbing Chicago Center
Sat 09:24:42 PM 40.3528 -85.8800 42° Northeast 117 135 4,000  Descending Chicago Center
Sat 09:25:19 PM 40.3706 -85.8611 39° Northeast 116 133 4,100  Climbing Chicago Center
Sat 09:25:43 PM 40.3781 -85.8550 32° Northeast 115 132 4,000 100 Descending Chicago Center
Sat 09:26:19 PM 40.3961 -85.8350 40° Northeast 118 136 4,200  Climbing Chicago Center
Sat 09:26:44 PM 40.4039 -85.8281 34° Northeast 116 133 4,000 -98 Descending Chicago Center
Sat 09:27:20 PM 40.4242 -85.8092 35° Northeast 120 138 4,100 98 Climbing Chicago Center
Sat 09:27:45 PM 40.4367 -85.7961 38° Northeast 120 138 4,100  Level Chicago Center
Sat 09:28:20 PM 40.4478 -85.7831 42° Northeast 121 139 4,100  Level Chicago Center
Sat 09:28:46 PM 40.4622 -85.7678 39° Northeast 121 139 4,100  Level Chicago Center
Sat 09:29:21 PM 40.4758 -85.7517 42° Northeast 122 140 4,100  Level Chicago Center
Sat 09:29:47 PM 40.4878 -85.7375 42° Northeast 122 140 4,100  Level Chicago Center
Sat 09:30:48 PM 40.5142 -85.7103 38° Northeast 122 140 4,100 -49 Level Chicago Center
Sat 09:31:49 PM 40.5397 -85.6853 37° Northeast 118 136 4,000 -49 Descending Chicago Center
Sat 09:32:50 PM 40.5633 -85.6533 46° Northeast 120 138 4,000  Level Chicago Center
Sat 09:33:51 PM 40.5869 -85.6247 43° Northeast 118 136 4,000  Level Chicago Center
Sat 09:34:52 PM 40.6108 -85.5967 42° Northeast 116 133 4,000 49 Level Chicago Center
Sat 09:35:53 PM 40.6356 -85.5703 39° Northeast 115 132 4,100  Climbing Chicago Center
Sat 09:36:54 PM 40.6581 -85.5408 45° Northeast 115 132 4,000 -49 Descending Chicago Center
Sat 09:37:55 PM 40.6842 -85.5061 45° Northeast 118 136 4,000  Level Chicago Center
Sat 09:38:56 PM 40.7072 -85.4781 43° Northeast 116 133 4,000  Level Chicago Center
Sat 09:39:56 PM 40.7294 -85.4489 45° Northeast 115 132 4,000 50 Level Chicago Center
Sat 09:40:57 PM 40.7550 -85.4219 39° Northeast 116 133 4,100 49 Climbing Chicago Center
Sat 09:41:58 PM 40.7825 -85.3981 33° Northeast 118 136 4,100  Level Chicago Center
Sat 09:42:59 PM 40.8108 -85.3786 27° Northeast 118 136 4,100  Level Chicago Center
Sat 09:44:00 PM 40.8397 -85.3581 28° Northeast 118 136 4,100  Level Chicago Center
Sat 09:45:01 PM 40.8672 -85.3353 32° Northeast 117 135 4,100  Level Chicago Center
Sat 09:46:02 PM 40.8922 -85.3081 39° Northeast 116 133 4,100 -49 Level Chicago Center
Sat 09:47:03 PM 40.9222 -85.2722 42° Northeast 117 135 4,000 -49 Descending Chicago Center
Sat 09:48:04 PM 40.9469 -85.2444 40° Northeast 119 137 4,000  Level Chicago Center
Sat 09:49:05 PM 40.9722 -85.2183 38° Northeast 117 135 4,000  Level Chicago Center
Sat 09:50:06 PM 40.9983 -85.1925 37° Northeast 117 135 4,000  Level Chicago Center
Sat 09:51:07 PM 41.0231 -85.1675 37° Northeast 115 132 4,000  Level Chicago Center
Sat 09:52:08 PM 41.0506 -85.1447 32° Northeast 116 133 4,000  Level Chicago Center
Sat 09:53:09 PM 41.0761 -85.1192 37° Northeast 116 133 4,000  Level Chicago Center
Sat 09:54:10 PM 41.1006 -85.0939 38° Northeast 114 131 4,000  Level Chicago Center
Sat 09:55:11 PM 41.1258 -85.0692 36° Northeast 114 131 4,000  Level Chicago Center
Sat 09:56:12 PM 41.1514 -85.0442 36° Northeast 113 130 4,000 50 Level Chicago Center
Sat 09:57:12 PM 41.1764 -85.0186 38° Northeast 114 131 4,100 50 Climbing Chicago Center
Sat 09:58:13 PM 41.2064 -84.9900 36° Northeast 112 129 4,100 -49 Level Chicago Center
Sat 09:59:14 PM 41.2317 -84.9631 39° Northeast 114 131 4,000 -49 Descending Chicago Center
Sat 10:00:15 PM 41.2533 -84.9314 48° Northeast 115 132 4,000 49 Level Chicago Center
Sat 10:01:16 PM 41.2747 -84.9014 47° Northeast 114 131 4,100 49 Climbing Chicago Center
Sat 10:02:17 PM 41.2975 -84.8733 43° Northeast 113 130 4,100  Level Chicago Center
Sat 10:03:18 PM 41.3200 -84.8444 44° Northeast 113 130 4,100  Level Chicago Center
Sat 10:04:19 PM 41.3433 -84.8147 44° Northeast 114 131 4,100  Level Chicago Center
Sat 10:05:20 PM 41.3692 -84.7886 37° Northeast 115 132 4,100 -49 Level Chicago Center
Sat 10:06:21 PM 41.3953 -84.7631 36° Northeast 116 133 4,000 -49 Descending Chicago Center
Sat 10:07:22 PM 41.4208 -84.7383 36° Northeast 116 133 4,000  Level Chicago Center
Sat 10:08:23 PM 41.4464 -84.7139 36° Northeast 114 131 4,000  Level Chicago Center
Sat 10:09:24 PM 41.4708 -84.6858 41° Northeast 115 132 4,000  Level Chicago Center
Sat 10:10:24 PM 41.5000 -84.6519 41° Northeast 116 133 4,000  Level Chicago Center
Sat 10:11:25 PM 41.5239 -84.6247 40° Northeast 115 132 4,000  Level Chicago Center
Sat 10:12:26 PM 41.5483 -84.5981 39° Northeast 114 131 4,000  Level Chicago Center
Sat 10:13:27 PM 41.5739 -84.5744 35° Northeast 113 130 4,000  Level Chicago Center
Sat 10:14:28 PM 41.5994 -84.5503 35° Northeast 113 130 4,000 -49 Level Chicago Center
Sat 10:15:29 PM 41.6239 -84.5236 39° Northeast 113 130 3,900  Descending Chicago Center
Sat 10:16:29 PM 41.6472 -84.4956 42° Northeast 114 131 4,000 50 Climbing Chicago Center
Sat 10:17:30 PM 41.6706 -84.4686 41° Northeast 113 130 4,000  Level Chicago Center

Login

Don't have an account? Register now (free) for customized features, flight alerts, and more!